X  Chiuso Dati meteorologici dell'aviazione (METAR)     LIML Milano Linate Airport
Temperatura
6°C Temperatura
2°C Punto di rugiada
76% Umidità



Vento
0 M/S
1 MPH
2 KM/O
1 KTS



Calmo
N
Condizioni attuali

Chiaro Chiaro
Pressione 1038.94 (hPa) - 30.68 (inHg)
Visibilità 6 (miglio) - 9.7 (km)
Aeroporto
Codice-Aeroporto LIML

Posizione: Milano Linate Airport
Distanza: 6 (km)

Metar:
LIML 161620Z VRB01KT CAVOK 06/02 Q1039 NOSIG

Ore: 16-12-2023 16:20 CET